createdAt,value
2017-06-25T00:00:25.742Z,23.7
2017-06-25T00:01:27.767Z,23.7
2017-06-25T00:02:29.792Z,23.7
2017-06-25T00:03:31.824Z,23.7
2017-06-25T00:04:33.855Z,23.7
2017-06-25T00:05:35.878Z,23.7
2017-06-25T00:06:37.904Z,23.7
2017-06-25T00:07:40.264Z,23.7
2017-06-25T00:08:42.294Z,23.7
2017-06-25T00:09:44.649Z,23.7
2017-06-25T00:10:46.677Z,23.7
2017-06-25T00:11:48.705Z,23.7
2017-06-25T00:12:51.411Z,23.7
2017-06-25T00:13:53.436Z,23.7
2017-06-25T00:14:55.464Z,23.7
2017-06-25T00:15:57.497Z,23.7
2017-06-25T00:16:59.518Z,23.7
2017-06-25T00:18:01.548Z,23.7
2017-06-25T00:19:03.579Z,23.7
2017-06-25T00:20:05.626Z,23.7
2017-06-25T00:21:07.658Z,23.7
2017-06-25T00:22:09.721Z,23.7
2017-06-25T00:23:11.774Z,23.7
2017-06-25T00:24:13.799Z,23.7
2017-06-25T00:25:15.823Z,23.7
2017-06-25T00:26:17.899Z,23.7
2017-06-25T00:27:19.948Z,23.7
2017-06-25T00:28:21.999Z,23.7
2017-06-25T00:29:24.020Z,23.7
2017-06-25T00:30:26.045Z,23.7
2017-06-25T00:31:28.069Z,23.7
2017-06-25T00:32:30.097Z,23.7
2017-06-25T00:33:32.120Z,23.7
2017-06-25T00:34:34.152Z,23.7
2017-06-25T00:35:36.172Z,23.7
2017-06-25T00:36:38.207Z,23.7
2017-06-25T00:37:40.569Z,23.7
2017-06-25T00:38:42.592Z,23.7
2017-06-25T00:39:44.626Z,23.7
2017-06-25T00:40:46.648Z,23.7
2017-06-25T00:41:48.676Z,23.7
2017-06-25T00:42:51.036Z,23.7
2017-06-25T00:43:54.118Z,23.7
2017-06-25T00:44:57.492Z,23.7
2017-06-25T00:46:00.778Z,23.7
2017-06-25T00:47:03.923Z,23.7
2017-06-25T00:48:07.347Z,23.7
2017-06-25T00:49:11.905Z,23.7
2017-06-25T00:50:14.745Z,23.7
2017-06-25T00:51:18.198Z,23.7
2017-06-25T00:52:21.495Z,23.7
2017-06-25T00:53:24.738Z,23.7
2017-06-25T00:54:27.309Z,23.7
2017-06-25T00:55:29.345Z,23.7
2017-06-25T00:56:31.377Z,23.7
2017-06-25T00:57:33.405Z,23.7
2017-06-25T00:58:35.635Z,23.7
2017-06-25T00:59:37.674Z,23.7
2017-06-25T01:00:39.708Z,23.7
2017-06-25T01:01:41.742Z,23.7
2017-06-25T01:02:44.104Z,23.7
2017-06-25T01:03:46.135Z,23.7
2017-06-25T01:04:48.158Z,23.7
2017-06-25T01:05:50.534Z,23.7
2017-06-25T01:06:52.562Z,23.7
2017-06-25T01:07:54.592Z,23.7
2017-06-25T01:08:56.619Z,23.7
2017-06-25T01:09:58.635Z,23.7
2017-06-25T01:11:00.659Z,23.7
2017-06-25T01:12:02.685Z,23.7
2017-06-25T01:13:05.390Z,23.7
2017-06-25T01:14:07.419Z,23.7
2017-06-25T01:15:09.465Z,23.7
2017-06-25T01:16:11.832Z,23.7
2017-06-25T01:17:13.850Z,23.7
2017-06-25T01:18:15.869Z,23.7
2017-06-25T01:19:18.245Z,23.7
2017-06-25T01:20:20.268Z,23.7
2017-06-25T01:21:22.318Z,23.7
2017-06-25T01:22:24.344Z,23.7
2017-06-25T01:23:26.375Z,23.7
2017-06-25T01:24:28.407Z,23.7
2017-06-25T01:25:30.446Z,23.7
2017-06-25T01:26:32.476Z,23.7
2017-06-25T01:27:34.501Z,23.7
2017-06-25T01:28:36.862Z,23.7
2017-06-25T01:29:38.884Z,23.7
2017-06-25T01:30:41.251Z,23.7
2017-06-25T01:31:43.270Z,23.7
2017-06-25T01:32:45.657Z,23.7
2017-06-25T01:33:47.684Z,23.7
2017-06-25T01:34:49.704Z,23.7
2017-06-25T01:35:51.731Z,23.6
2017-06-25T01:36:53.756Z,23.7
2017-06-25T01:37:55.781Z,23.7
2017-06-25T01:38:57.807Z,23.7
2017-06-25T01:40:00.178Z,23.7
2017-06-25T01:41:02.196Z,23.7
2017-06-25T01:42:04.573Z,23.6
2017-06-25T01:43:06.593Z,23.6
2017-06-25T01:44:08.959Z,23.7
2017-06-25T01:45:10.989Z,23.7
2017-06-25T01:46:13.025Z,23.7
2017-06-25T01:47:15.041Z,23.7
2017-06-25T01:48:17.399Z,23.7
2017-06-25T01:49:21.214Z,23.7
2017-06-25T01:50:24.469Z,23.7
2017-06-25T01:51:28.697Z,23.7
2017-06-25T01:52:30.941Z,23.7
2017-06-25T01:53:33.821Z,23.7
2017-06-25T01:54:37.074Z,23.7
2017-06-25T01:55:39.995Z,23.7
2017-06-25T01:56:42.423Z,23.7
2017-06-25T01:57:46.084Z,23.7
2017-06-25T01:58:48.949Z,23.7
2017-06-25T01:59:51.296Z,23.7
2017-06-25T02:00:53.855Z,23.7
2017-06-25T02:01:56.611Z,23.7
2017-06-25T02:02:59.074Z,23.7
2017-06-25T02:04:01.188Z,23.7
2017-06-25T02:05:04.144Z,23.7
2017-06-25T02:06:06.834Z,23.7
2017-06-25T02:07:09.407Z,23.7
2017-06-25T02:08:12.323Z,23.7
2017-06-25T02:09:14.686Z,23.7
2017-06-25T02:10:17.517Z,23.7
2017-06-25T02:11:20.050Z,23.7
2017-06-25T02:12:22.570Z,23.7
2017-06-25T02:13:24.900Z,23.7
2017-06-25T02:14:28.021Z,23.7
2017-06-25T02:15:30.555Z,23.7
2017-06-25T02:16:33.494Z,23.7
2017-06-25T02:17:35.856Z,23.7
2017-06-25T02:18:37.982Z,23.7
2017-06-25T02:19:40.297Z,23.7
2017-06-25T02:20:43.293Z,23.7
2017-06-25T02:21:45.506Z,23.7
2017-06-25T02:22:48.144Z,23.7
2017-06-25T02:23:50.273Z,23.7
2017-06-25T02:24:52.358Z,23.7
2017-06-25T02:25:54.389Z,23.7
2017-06-25T02:26:56.499Z,23.7
2017-06-25T02:27:58.551Z,23.7
2017-06-25T02:29:01.188Z,23.7
2017-06-25T02:30:03.353Z,23.7
2017-06-25T02:31:05.940Z,23.7
2017-06-25T02:32:07.979Z,23.7
2017-06-25T02:33:10.031Z,23.7
2017-06-25T02:34:12.126Z,23.7
2017-06-25T02:35:14.168Z,23.7
2017-06-25T02:36:16.197Z,23.7
2017-06-25T02:37:18.220Z,23.7
2017-06-25T02:38:20.277Z,23.7
2017-06-25T02:39:22.311Z,23.7
2017-06-25T02:40:24.342Z,23.7
2017-06-25T02:41:26.431Z,23.7
2017-06-25T02:42:28.525Z,23.7
2017-06-25T02:43:30.586Z,23.7
2017-06-25T02:44:32.624Z,23.7
2017-06-25T02:45:34.661Z,23.7
2017-06-25T02:46:37.114Z,23.7
2017-06-25T02:47:39.178Z,23.7
2017-06-25T02:48:41.232Z,23.7
2017-06-25T02:49:43.293Z,23.7
2017-06-25T02:50:45.479Z,23.7
2017-06-25T02:51:47.519Z,23.7
2017-06-25T02:52:49.560Z,23.8
2017-06-25T02:53:51.614Z,23.8
2017-06-25T02:54:53.673Z,23.7
2017-06-25T02:55:55.703Z,23.7
2017-06-25T02:56:57.747Z,23.8
2017-06-25T02:58:00.041Z,23.8
2017-06-25T02:59:02.062Z,23.8
2017-06-25T03:00:04.103Z,23.8
2017-06-25T03:01:06.182Z,23.8
2017-06-25T03:02:08.245Z,23.8
2017-06-25T03:03:10.313Z,23.8
2017-06-25T03:04:12.365Z,23.8
2017-06-25T03:05:14.786Z,23.8
2017-06-25T03:06:16.846Z,23.8
2017-06-25T03:07:18.914Z,23.8
2017-06-25T03:08:20.978Z,23.8
2017-06-25T03:09:23.103Z,23.8
2017-06-25T03:10:25.210Z,23.8
2017-06-25T03:11:27.290Z,23.8
2017-06-25T03:12:29.323Z,23.8
2017-06-25T03:13:31.394Z,23.8
2017-06-25T03:14:33.416Z,23.8
2017-06-25T03:15:35.811Z,23.8
2017-06-25T03:16:38.240Z,23.8
2017-06-25T03:17:40.266Z,23.8
2017-06-25T03:18:42.314Z,23.8
2017-06-25T03:19:44.413Z,23.8
2017-06-25T03:20:46.818Z,23.8
2017-06-25T03:21:48.857Z,23.9
2017-06-25T03:22:50.921Z,23.9
2017-06-25T03:23:52.938Z,23.9
2017-06-25T03:24:54.973Z,23.9
2017-06-25T03:25:57.006Z,23.9
2017-06-25T03:26:59.042Z,24
2017-06-25T03:28:01.472Z,24
2017-06-25T03:29:03.557Z,24
2017-06-25T03:30:05.584Z,24.1
2017-06-25T03:31:07.620Z,24.1
2017-06-25T03:32:09.642Z,24.1
2017-06-25T03:33:11.677Z,24.1
2017-06-25T03:34:13.786Z,24.1
2017-06-25T03:35:15.846Z,24.1
2017-06-25T03:36:17.888Z,24.1
2017-06-25T03:37:19.935Z,24.1
2017-06-25T03:38:22.340Z,24.1
2017-06-25T03:39:24.376Z,24.1
2017-06-25T03:40:26.408Z,24.1
2017-06-25T03:41:28.585Z,24.1
2017-06-25T03:42:31.146Z,24.1
2017-06-25T03:43:33.601Z,24.1
2017-06-25T03:44:35.905Z,24.1
2017-06-25T03:45:37.965Z,24.1
2017-06-25T03:46:40.127Z,24.1
2017-06-25T03:47:42.243Z,24
2017-06-25T03:48:44.372Z,24
2017-06-25T03:49:46.571Z,24
2017-06-25T03:50:48.599Z,24
2017-06-25T03:51:51.074Z,24
2017-06-25T03:52:53.239Z,24
2017-06-25T03:53:55.301Z,24
2017-06-25T03:54:57.643Z,24
2017-06-25T03:55:59.735Z,24
2017-06-25T03:57:01.793Z,24
2017-06-25T03:58:03.908Z,24
2017-06-25T03:59:06.017Z,24
2017-06-25T04:00:08.451Z,24
2017-06-25T04:01:10.512Z,24
2017-06-25T04:02:12.548Z,24
2017-06-25T04:03:14.630Z,23.9
2017-06-25T04:04:16.720Z,24
2017-06-25T04:05:19.116Z,24
2017-06-25T04:06:21.225Z,24
2017-06-25T04:07:23.322Z,24
2017-06-25T04:08:25.721Z,24
2017-06-25T04:09:27.857Z,24
2017-06-25T04:10:29.949Z,24
2017-06-25T04:11:32.042Z,24
2017-06-25T04:12:34.189Z,24
2017-06-25T04:13:36.252Z,24
2017-06-25T04:14:38.316Z,24
2017-06-25T04:15:40.729Z,24
2017-06-25T04:16:42.904Z,24
2017-06-25T04:17:45.071Z,24
2017-06-25T04:18:47.221Z,24
2017-06-25T04:19:49.327Z,24
2017-06-25T04:20:51.487Z,24.1
2017-06-25T04:21:53.651Z,24.1
2017-06-25T04:22:55.743Z,24.1
2017-06-25T04:23:57.806Z,24.1
2017-06-25T04:24:59.907Z,24.1
2017-06-25T04:26:02.178Z,24.1
2017-06-25T04:27:04.578Z,24.2
2017-06-25T04:28:06.661Z,24.1
2017-06-25T04:29:08.734Z,24.2
2017-06-25T04:30:10.781Z,24.2
2017-06-25T04:31:12.998Z,24.1
2017-06-25T04:32:15.090Z,24.1
2017-06-25T04:33:17.693Z,24.2
2017-06-25T04:34:19.835Z,24.2
2017-06-25T04:35:21.891Z,24.3
2017-06-25T04:36:24.077Z,24.3
2017-06-25T04:37:26.116Z,24.2
2017-06-25T04:38:28.236Z,24.2
2017-06-25T04:39:30.296Z,24.2
2017-06-25T04:40:32.538Z,24.2
2017-06-25T04:41:34.657Z,24.2
2017-06-25T04:42:36.890Z,24.1
2017-06-25T04:43:39.046Z,24.2
2017-06-25T04:44:41.192Z,24.2
2017-06-25T04:45:43.658Z,24.2
2017-06-25T04:46:45.813Z,24.2
2017-06-25T04:47:47.934Z,24.2
2017-06-25T04:48:50.148Z,24.2
2017-06-25T04:49:52.508Z,24.2
2017-06-25T04:50:54.654Z,24.2
2017-06-25T04:51:56.752Z,24.2
2017-06-25T04:52:58.831Z,24.2
2017-06-25T04:54:01.055Z,24.2
2017-06-25T04:55:03.215Z,24.2
2017-06-25T04:56:05.323Z,24.2
2017-06-25T04:57:07.456Z,24.2
2017-06-25T04:58:09.571Z,24.2
2017-06-25T04:59:11.613Z,24.2
2017-06-25T05:00:13.640Z,24.1
2017-06-25T05:01:15.669Z,24.2
2017-06-25T05:02:21.376Z,24.2
2017-06-25T05:03:24.264Z,24.3
2017-06-25T05:04:26.294Z,24.3
2017-06-25T05:05:28.998Z,24.3
2017-06-25T05:06:31.038Z,24.4
2017-06-25T05:07:33.106Z,24.4
2017-06-25T05:08:35.443Z,24.5
2017-06-25T05:09:40.274Z,24.5
2017-06-25T05:10:44.192Z,24.5
2017-06-25T05:11:46.229Z,24.5
2017-06-25T05:12:48.260Z,24.5
2017-06-25T05:13:50.990Z,24.5
2017-06-25T05:14:53.361Z,24.6
2017-06-25T05:15:57.384Z,24.6
2017-06-25T05:17:03.822Z,24.6
2017-06-25T05:18:09.970Z,24.7
2017-06-25T05:19:15.711Z,24.8
2017-06-25T05:20:21.538Z,24.8
2017-06-25T05:21:24.634Z,24.7
2017-06-25T05:22:26.673Z,24.7
2017-06-25T05:23:28.706Z,24.6
2017-06-25T05:24:30.754Z,24.6
2017-06-25T05:25:35.695Z,24.5
2017-06-25T05:26:41.926Z,24.5
2017-06-25T05:27:49.840Z,24.5
2017-06-25T05:28:57.848Z,24.6
2017-06-25T05:30:00.727Z,24.5
2017-06-25T05:31:02.755Z,24.4
2017-06-25T05:32:04.788Z,24.4
2017-06-25T05:33:06.854Z,24.4
2017-06-25T05:34:11.945Z,24.5
2017-06-25T05:35:16.234Z,24.5
2017-06-25T05:36:23.367Z,24.4
2017-06-25T05:37:29.738Z,24.3
2017-06-25T05:38:31.829Z,24.3
2017-06-25T05:39:33.853Z,24.4
2017-06-25T05:40:35.906Z,24.6
2017-06-25T05:41:37.931Z,24.6
2017-06-25T05:42:44.246Z,24.7
2017-06-25T05:43:51.711Z,24.7
2017-06-25T05:44:57.760Z,24.7
2017-06-25T05:46:04.549Z,24.7
2017-06-25T05:47:07.686Z,24.7
2017-06-25T05:48:10.085Z,24.8
2017-06-25T05:49:12.162Z,24.8
2017-06-25T05:50:14.243Z,24.8
2017-06-25T05:51:17.121Z,24.9
2017-06-25T05:52:19.658Z,24.9
2017-06-25T05:53:22.700Z,25
2017-06-25T05:54:25.228Z,25
2017-06-25T05:55:28.208Z,25
2017-06-25T05:56:30.776Z,25.1
2017-06-25T05:57:33.517Z,25.1
2017-06-25T05:58:35.972Z,25
2017-06-25T05:59:38.569Z,25.1
2017-06-25T06:00:41.510Z,25.1
2017-06-25T06:01:44.006Z,25
2017-06-25T06:02:46.279Z,25
2017-06-25T06:03:51.011Z,24.9
2017-06-25T06:04:54.521Z,24.9
2017-06-25T06:05:58.637Z,24.9
2017-06-25T06:07:01.728Z,24.9
2017-06-25T06:08:04.122Z,24.9
2017-06-25T06:09:06.149Z,25
2017-06-25T06:10:08.241Z,25
2017-06-25T06:11:10.278Z,25
2017-06-25T06:12:12.325Z,25
2017-06-25T06:13:14.442Z,24.9
2017-06-25T06:14:16.900Z,24.9
2017-06-25T06:15:18.940Z,24.9
2017-06-25T06:16:20.976Z,25
2017-06-25T06:17:23.097Z,25
2017-06-25T06:18:25.137Z,25
2017-06-25T06:19:27.174Z,25.1
2017-06-25T06:20:29.207Z,25.2
2017-06-25T06:21:31.288Z,25.1
2017-06-25T06:22:33.319Z,25.2
2017-06-25T06:23:35.349Z,25.2
2017-06-25T06:24:37.591Z,25.2
2017-06-25T06:25:39.693Z,25.2
2017-06-25T06:26:41.729Z,25.2
2017-06-25T06:27:43.756Z,25.3
2017-06-25T06:28:45.814Z,25.2
2017-06-25T06:29:47.915Z,25.1
2017-06-25T06:30:49.942Z,25.2
2017-06-25T06:31:51.972Z,25.3
2017-06-25T06:32:54.002Z,25.4
2017-06-25T06:33:56.023Z,25.5
2017-06-25T06:34:58.110Z,25.6
2017-06-25T06:36:00.143Z,25.5
2017-06-25T06:37:02.202Z,25.5
2017-06-25T06:38:04.593Z,25.4
2017-06-25T06:39:06.652Z,25.3
2017-06-25T06:40:08.693Z,25.3
2017-06-25T06:41:10.719Z,25.3
2017-06-25T06:42:12.750Z,25.2
2017-06-25T06:43:14.783Z,25.2
2017-06-25T06:44:16.803Z,25.3
2017-06-25T06:45:18.840Z,25.3
2017-06-25T06:46:20.869Z,25.3
2017-06-25T06:47:22.901Z,25.4
2017-06-25T06:48:24.934Z,25.3
2017-06-25T06:49:26.957Z,25.2
2017-06-25T06:50:28.986Z,25.2
2017-06-25T06:51:31.021Z,25.2
2017-06-25T06:52:33.410Z,25.1
2017-06-25T06:53:35.435Z,25.1
2017-06-25T06:54:37.467Z,25.1
2017-06-25T06:55:39.499Z,25
2017-06-25T06:56:41.534Z,25
2017-06-25T06:57:43.557Z,24.9
2017-06-25T06:58:45.591Z,24.8
2017-06-25T06:59:47.616Z,24.8
2017-06-25T07:00:49.881Z,24.8
2017-06-25T07:01:51.918Z,24.8
2017-06-25T07:02:53.945Z,24.8
2017-06-25T07:03:55.988Z,24.8
2017-06-25T07:04:58.012Z,24.8
2017-06-25T07:06:00.037Z,24.9
2017-06-25T07:07:02.087Z,24.9
2017-06-25T07:08:04.806Z,24.9
2017-06-25T07:09:06.835Z,25
2017-06-25T07:10:08.868Z,25
2017-06-25T07:11:10.897Z,25
2017-06-25T07:12:12.931Z,25.1
2017-06-25T07:13:15.632Z,25.1
2017-06-25T07:14:17.664Z,25.2
2017-06-25T07:15:19.696Z,25.1
2017-06-25T07:16:21.735Z,25.2
2017-06-25T07:17:23.759Z,25.2
2017-06-25T07:18:25.789Z,25.2
2017-06-25T07:19:27.825Z,25.1
2017-06-25T07:20:29.852Z,25.1
2017-06-25T07:21:31.877Z,25.1
2017-06-25T07:22:33.906Z,25
2017-06-25T07:24:36.090Z,25.1
2017-06-25T07:25:38.142Z,25.1
2017-06-25T07:26:40.192Z,25.1
2017-06-25T07:27:42.250Z,25.1
2017-06-25T07:28:44.300Z,25.1
2017-06-25T07:29:46.361Z,25.1
2017-06-25T07:30:48.416Z,25.2
2017-06-25T07:31:50.455Z,25.2
2017-06-25T07:32:52.506Z,25.2
2017-06-25T07:33:54.559Z,25.3
2017-06-25T07:34:56.620Z,25.3
2017-06-25T07:35:58.666Z,25.3
2017-06-25T07:37:01.061Z,25.3
2017-06-25T07:38:03.117Z,25.3
2017-06-25T07:39:05.496Z,25.4
2017-06-25T07:40:07.556Z,25.4
2017-06-25T07:41:09.618Z,25.4
2017-06-25T07:42:11.666Z,25.5
2017-06-25T07:43:13.714Z,25.5
2017-06-25T07:44:15.770Z,25.5
2017-06-25T07:45:17.829Z,25.5
2017-06-25T07:46:19.886Z,25.6
2017-06-25T07:47:21.935Z,25.7
2017-06-25T07:48:23.991Z,25.6
2017-06-25T07:49:26.042Z,25.6
2017-06-25T07:50:28.090Z,25.6
2017-06-25T07:51:30.135Z,25.5
2017-06-25T07:52:32.183Z,25.5
2017-06-25T07:53:34.240Z,25.5
2017-06-25T07:54:36.629Z,25.4
2017-06-25T07:55:38.678Z,25.4
2017-06-25T07:56:40.726Z,25.4
2017-06-25T07:57:42.780Z,25.4
2017-06-25T07:58:44.835Z,25.4
2017-06-25T07:59:46.894Z,25.4
2017-06-25T08:00:48.950Z,25.4
2017-06-25T08:01:51.006Z,25.4
2017-06-25T08:02:53.240Z,25.4
2017-06-25T08:03:55.293Z,25.5
2017-06-25T08:04:57.680Z,25.5
2017-06-25T08:05:59.737Z,25.5
2017-06-25T08:07:01.794Z,25.5
2017-06-25T08:08:03.844Z,25.5
2017-06-25T08:09:06.270Z,25.5
2017-06-25T08:10:08.657Z,25.5
2017-06-25T08:11:10.707Z,25.5
2017-06-25T08:12:12.777Z,25.4
2017-06-25T08:13:14.823Z,25.5
2017-06-25T08:14:16.872Z,25.5
2017-06-25T08:15:18.922Z,25.5
2017-06-25T08:16:20.972Z,25.6
2017-06-25T08:17:23.016Z,25.6
2017-06-25T08:18:25.065Z,25.6
2017-06-25T08:19:27.449Z,25.6
2017-06-25T08:20:29.501Z,25.7
2017-06-25T08:21:31.882Z,25.7
2017-06-25T08:22:34.277Z,25.6
2017-06-25T08:23:36.330Z,25.6
2017-06-25T08:24:38.378Z,25.6
2017-06-25T08:25:40.425Z,25.7
2017-06-25T08:26:42.483Z,25.7
2017-06-25T08:27:44.528Z,25.6
2017-06-25T08:28:46.577Z,25.7
2017-06-25T08:29:48.628Z,25.6
2017-06-25T08:30:50.688Z,25.6
2017-06-25T08:31:52.742Z,25.5
2017-06-25T08:32:54.788Z,25.5
2017-06-25T08:33:56.843Z,25.6
2017-06-25T08:34:58.891Z,25.6
2017-06-25T08:36:00.944Z,25.6
2017-06-25T08:37:03.026Z,25.7
2017-06-25T08:38:05.437Z,25.7
2017-06-25T08:39:07.487Z,25.6
2017-06-25T08:40:09.538Z,25.7
2017-06-25T08:41:11.600Z,25.6
2017-06-25T08:42:13.651Z,25.6
2017-06-25T08:43:15.688Z,25.6
2017-06-25T08:44:17.748Z,25.6
2017-06-25T08:45:19.801Z,25.7
2017-06-25T08:46:21.854Z,25.8
2017-06-25T08:47:23.912Z,25.8
2017-06-25T08:48:25.967Z,25.8
2017-06-25T08:49:28.038Z,25.7
2017-06-25T08:50:30.098Z,25.7
2017-06-25T08:51:32.153Z,25.8
2017-06-25T08:52:34.222Z,25.8
2017-06-25T08:53:36.600Z,25.7
2017-06-25T08:54:38.852Z,25.7
2017-06-25T08:55:40.903Z,25.7
2017-06-25T08:56:42.956Z,25.8
2017-06-25T08:57:45.012Z,25.7
2017-06-25T08:58:47.068Z,25.7
2017-06-25T08:59:49.135Z,25.7
2017-06-25T09:00:51.194Z,25.5
2017-06-25T09:01:53.241Z,25.6
2017-06-25T09:02:55.304Z,25.6
2017-06-25T09:03:57.360Z,25.7
2017-06-25T09:04:59.410Z,25.7
2017-06-25T09:06:01.472Z,25.7
2017-06-25T09:07:03.520Z,25.6
2017-06-25T09:08:05.581Z,25.6
2017-06-25T09:09:07.639Z,25.7
2017-06-25T09:10:09.684Z,25.6
2017-06-25T09:11:11.738Z,25.6
2017-06-25T09:12:13.789Z,25.7
2017-06-25T09:13:15.842Z,25.7
2017-06-25T09:14:17.890Z,25.9
2017-06-25T09:15:19.944Z,25.9
2017-06-25T09:16:22.011Z,25.8
2017-06-25T09:17:24.061Z,25.9
2017-06-25T09:18:26.120Z,26
2017-06-25T09:19:28.178Z,26
2017-06-25T09:20:30.226Z,26
2017-06-25T09:21:32.281Z,26.1
2017-06-25T09:22:34.357Z,26.1
2017-06-25T09:23:36.414Z,26.1
2017-06-25T09:24:38.466Z,26.1
2017-06-25T09:25:40.508Z,26
2017-06-25T09:26:42.561Z,25.9
2017-06-25T09:27:44.965Z,25.8
2017-06-25T09:28:47.352Z,25.8
2017-06-25T09:29:49.402Z,25.9
2017-06-25T09:30:51.452Z,26
2017-06-25T09:31:53.501Z,26.1
2017-06-25T09:32:55.554Z,26
2017-06-25T09:33:57.609Z,26
2017-06-25T09:34:59.673Z,25.9
2017-06-25T09:36:02.403Z,25.8
2017-06-25T09:37:04.457Z,25.8
2017-06-25T09:38:06.506Z,25.8
2017-06-25T09:39:08.594Z,25.8
2017-06-25T09:40:10.835Z,25.9
2017-06-25T09:41:13.235Z,26
2017-06-25T09:42:15.289Z,26
2017-06-25T09:43:17.344Z,26
2017-06-25T09:44:19.404Z,26
2017-06-25T09:45:21.461Z,26.1
2017-06-25T09:46:23.537Z,26
2017-06-25T09:47:25.595Z,26
2017-06-25T09:48:27.651Z,26
2017-06-25T09:49:30.047Z,25.9
2017-06-25T09:50:32.093Z,25.9
2017-06-25T09:51:34.163Z,25.9
2017-06-25T09:52:36.217Z,25.8
2017-06-25T09:53:38.275Z,25.8
2017-06-25T09:54:40.324Z,25.9
2017-06-25T09:55:42.381Z,25.9
2017-06-25T09:56:44.433Z,25.9
2017-06-25T09:57:46.494Z,25.8
2017-06-25T09:58:48.552Z,25.8
2017-06-25T09:59:50.612Z,25.7
2017-06-25T10:00:52.655Z,25.7
2017-06-25T10:01:54.711Z,25.6
2017-06-25T10:02:57.097Z,25.6
2017-06-25T10:03:59.156Z,25.6
2017-06-25T10:05:01.211Z,25.6
2017-06-25T10:06:03.598Z,25.7
2017-06-25T10:07:05.649Z,25.8
2017-06-25T10:08:07.710Z,25.8
2017-06-25T10:09:09.747Z,25.8
2017-06-25T10:10:11.807Z,25.9
2017-06-25T10:11:14.116Z,25.9
2017-06-25T10:12:16.177Z,25.8
2017-06-25T10:13:18.223Z,25.8
2017-06-25T10:14:20.273Z,25.8
2017-06-25T10:15:22.317Z,25.8
2017-06-25T10:16:24.370Z,25.8
2017-06-25T10:17:26.417Z,25.8
2017-06-25T10:18:28.480Z,25.8
2017-06-25T10:19:30.532Z,25.8
2017-06-25T10:20:32.924Z,25.7
2017-06-25T10:21:34.984Z,25.7
2017-06-25T10:22:37.403Z,25.7
2017-06-25T10:23:39.472Z,25.6
2017-06-25T10:24:41.521Z,25.7
2017-06-25T10:25:43.584Z,25.8
2017-06-25T10:26:45.650Z,25.9
2017-06-25T10:27:47.716Z,26
2017-06-25T10:28:49.770Z,26
2017-06-25T10:29:51.847Z,26
2017-06-25T10:30:53.908Z,26
2017-06-25T10:31:55.971Z,26
2017-06-25T10:32:58.374Z,25.9
2017-06-25T10:34:00.464Z,25.8
2017-06-25T10:35:02.534Z,25.8
2017-06-25T10:36:04.930Z,25.8
2017-06-25T10:37:07.664Z,25.8
2017-06-25T10:38:10.263Z,25.9
2017-06-25T10:39:12.312Z,25.9
2017-06-25T10:40:14.905Z,25.9
2017-06-25T10:41:16.965Z,25.9
2017-06-25T10:42:19.022Z,26
2017-06-25T10:43:21.078Z,25.9
2017-06-25T10:44:23.164Z,25.8
2017-06-25T10:45:25.219Z,25.7
2017-06-25T10:46:27.284Z,25.6
2017-06-25T10:47:29.326Z,25.5
2017-06-25T10:48:31.393Z,25.4
2017-06-25T10:49:33.802Z,25.3
2017-06-25T10:50:35.865Z,25.2
2017-06-25T10:51:37.921Z,25.1
2017-06-25T10:52:39.981Z,25.1
2017-06-25T10:53:42.044Z,25
2017-06-25T10:54:44.097Z,25
2017-06-25T10:55:46.156Z,25
2017-06-25T10:56:48.240Z,25
2017-06-25T10:57:50.289Z,24.9
2017-06-25T10:58:52.346Z,24.9
2017-06-25T10:59:54.761Z,24.8
2017-06-25T11:00:56.816Z,24.8
2017-06-25T11:01:58.864Z,24.8
2017-06-25T11:03:00.911Z,24.8
2017-06-25T11:04:02.961Z,24.7
2017-06-25T11:05:05.003Z,24.7
2017-06-25T11:06:07.071Z,24.7
2017-06-25T11:07:09.123Z,24.7
2017-06-25T11:08:11.182Z,24.7
2017-06-25T11:09:13.232Z,24.7
2017-06-25T11:10:15.278Z,24.7
2017-06-25T11:11:17.329Z,24.8
2017-06-25T11:12:19.380Z,24.8
2017-06-25T11:13:21.430Z,24.9
2017-06-25T11:14:23.496Z,25
2017-06-25T11:15:25.543Z,25.2
2017-06-25T11:16:27.596Z,25.3
2017-06-25T11:17:29.645Z,25.3
2017-06-25T11:18:31.699Z,25.2
2017-06-25T11:19:33.747Z,25.2
2017-06-25T11:20:35.803Z,25.1
2017-06-25T11:21:37.869Z,25
2017-06-25T11:22:39.969Z,25
2017-06-25T11:23:42.376Z,25
2017-06-25T11:24:44.771Z,25
2017-06-25T11:25:46.848Z,25.1
2017-06-25T11:26:48.901Z,25.1
2017-06-25T11:27:50.945Z,25.1
2017-06-25T11:28:53.012Z,25.1
2017-06-25T11:29:55.064Z,25.1
2017-06-25T11:30:57.109Z,25.1
2017-06-25T11:31:59.164Z,25.1
2017-06-25T11:33:01.218Z,25.1
2017-06-25T11:34:03.277Z,25.1
2017-06-25T11:35:05.325Z,25.2
2017-06-25T11:36:07.382Z,25.2
2017-06-25T11:37:09.430Z,25.2
2017-06-25T11:38:11.516Z,25.2
2017-06-25T11:39:13.562Z,25.2
2017-06-25T11:40:15.947Z,25.2
2017-06-25T11:41:18.008Z,25.2
2017-06-25T11:42:20.057Z,25.3
2017-06-25T11:43:22.104Z,25.4
2017-06-25T11:44:24.156Z,25.4
2017-06-25T11:45:26.548Z,25.4
2017-06-25T11:46:28.947Z,25.4
2017-06-25T11:47:30.988Z,25.4
2017-06-25T11:48:33.563Z,25.4
2017-06-25T11:49:35.620Z,25.4
2017-06-25T11:50:37.672Z,25.4
2017-06-25T11:51:39.727Z,25.5
2017-06-25T11:52:41.778Z,25.6
2017-06-25T11:53:43.829Z,25.6
2017-06-25T11:54:45.873Z,25.6
2017-06-25T11:55:47.958Z,25.7
2017-06-25T11:56:50.006Z,25.5
2017-06-25T11:57:52.061Z,25.5
2017-06-25T11:58:54.482Z,25.6
2017-06-25T11:59:56.551Z,25.6
2017-06-25T12:00:58.639Z,25.6
2017-06-25T12:02:01.037Z,25.6
2017-06-25T12:03:03.095Z,25.6
2017-06-25T12:04:05.157Z,25.7
2017-06-25T12:05:07.211Z,25.6
2017-06-25T12:06:09.268Z,25.6
2017-06-25T12:07:11.321Z,25.6
2017-06-25T12:08:13.373Z,25.5
2017-06-25T12:09:15.791Z,25.5
2017-06-25T12:10:17.847Z,25.4
2017-06-25T12:11:19.903Z,25.4
2017-06-25T12:12:21.948Z,25.6
2017-06-25T12:13:24.011Z,25.6
2017-06-25T12:14:26.055Z,25.6
2017-06-25T12:15:28.110Z,25.6
2017-06-25T12:16:30.207Z,25.6
2017-06-25T12:17:32.263Z,25.6
2017-06-25T12:18:34.323Z,25.5
2017-06-25T12:19:36.385Z,25.5
2017-06-25T12:20:38.431Z,25.5
2017-06-25T12:21:40.501Z,25.4
2017-06-25T12:22:42.548Z,25.3
2017-06-25T12:23:44.599Z,25.3
2017-06-25T12:24:46.659Z,25.2
2017-06-25T12:25:48.720Z,25.3
2017-06-25T12:26:50.771Z,25.3
2017-06-25T12:27:52.839Z,25.3
2017-06-25T12:28:54.890Z,25.3
2017-06-25T12:29:56.942Z,25.3
2017-06-25T12:30:58.994Z,25.3
2017-06-25T12:32:01.051Z,25.2
2017-06-25T12:33:03.103Z,25.2
2017-06-25T12:34:05.158Z,25.1
2017-06-25T12:35:07.561Z,25.1
2017-06-25T12:36:09.616Z,25.1
2017-06-25T12:37:11.661Z,25.2
2017-06-25T12:38:13.735Z,25.3
2017-06-25T12:39:16.132Z,25.4
2017-06-25T12:40:18.195Z,25.4
2017-06-25T12:41:20.261Z,25.4
2017-06-25T12:42:22.670Z,25.5
2017-06-25T12:43:24.729Z,25.6
2017-06-25T12:44:26.795Z,25.7
2017-06-25T12:45:28.861Z,25.7
2017-06-25T12:46:30.915Z,25.7
2017-06-25T12:47:32.977Z,25.7
2017-06-25T12:48:35.021Z,25.7
2017-06-25T12:49:37.419Z,25.8
2017-06-25T12:50:39.471Z,25.8
2017-06-25T12:51:41.517Z,25.7
2017-06-25T12:52:43.578Z,25.6
2017-06-25T12:53:45.619Z,25.5
2017-06-25T12:54:47.671Z,25.5
2017-06-25T12:55:49.731Z,25.5
2017-06-25T12:56:51.783Z,25.5
2017-06-25T12:57:54.192Z,25.4
2017-06-25T12:58:56.244Z,25.4
2017-06-25T12:59:58.301Z,25.4
2017-06-25T13:01:00.359Z,25.3
2017-06-25T13:02:02.412Z,25.3
2017-06-25T13:03:04.483Z,25.4
2017-06-25T13:04:06.538Z,25.4
2017-06-25T13:05:08.595Z,25.4
2017-06-25T13:06:10.648Z,25.5
2017-06-25T13:07:12.696Z,25.5
2017-06-25T13:08:14.752Z,25.5
2017-06-25T13:09:16.797Z,25.4
2017-06-25T13:10:18.848Z,25.4
2017-06-25T13:11:20.930Z,25.3
2017-06-25T13:12:22.992Z,25.2
2017-06-25T13:13:25.038Z,25.2
2017-06-25T13:14:27.090Z,25.2
2017-06-25T13:15:29.156Z,25.2
2017-06-25T13:16:31.217Z,25.2
2017-06-25T13:17:33.278Z,25.2
2017-06-25T13:18:35.326Z,25.2
2017-06-25T13:19:37.376Z,25.2
2017-06-25T13:20:39.433Z,25.2
2017-06-25T13:21:41.488Z,25.1
2017-06-25T13:22:43.559Z,25.2
2017-06-25T13:23:45.616Z,25.1
2017-06-25T13:24:47.670Z,25.2
2017-06-25T13:25:49.719Z,25.2
2017-06-25T13:26:51.785Z,25.2
2017-06-25T13:27:53.843Z,25.1
2017-06-25T13:28:55.890Z,25.2
2017-06-25T13:29:57.953Z,25.4
2017-06-25T13:31:00.002Z,25.6
2017-06-25T13:32:02.066Z,25.6
2017-06-25T13:33:04.125Z,25.7
2017-06-25T13:34:06.174Z,25.8
2017-06-25T13:35:08.236Z,25.7
2017-06-25T13:36:10.297Z,25.6
2017-06-25T13:37:12.345Z,25.6
2017-06-25T13:38:14.402Z,25.6
2017-06-25T13:39:16.461Z,25.4
2017-06-25T13:40:18.531Z,25.3
2017-06-25T13:41:20.588Z,25.3
2017-06-25T13:42:22.640Z,25.3
2017-06-25T13:43:24.728Z,25.3
2017-06-25T13:44:26.783Z,25.3
2017-06-25T13:45:28.833Z,25.4
2017-06-25T13:46:30.893Z,25.4
2017-06-25T13:47:32.947Z,25.4
2017-06-25T13:48:35.323Z,25.5
2017-06-25T13:49:37.385Z,25.5
2017-06-25T13:50:39.440Z,25.5
2017-06-25T13:51:41.497Z,25.6
2017-06-25T13:52:43.551Z,25.8
2017-06-25T13:53:45.599Z,25.9
2017-06-25T13:54:48.175Z,26
2017-06-25T13:55:50.223Z,26